<?xml version="1.0" encoding="UTF-8"?>
<gpx version="1.0" creator="GPSBabel - https://www.gpsbabel.org" xmlns="http://www.topografix.com/GPX/1/0">
  <time>2021-04-27T22:40:24.926Z</time>
  <bounds minlat="33.344525700" minlon="-106.013042660" maxlat="33.349342810" maxlon="-106.008485190"/>
  <trk>
    <name>The River Petroglyph Trail Walkabout.PatJayNancy.2021-04-24</name>
    <trkseg>
      <trkpt lat="33.344826600" lon="-106.008925110">
        <ele>1498.800</ele>
        <time>2021-04-24T15:52:29Z</time>
        <name>WPT</name>
      </trkpt>
      <trkpt lat="33.344821100" lon="-106.008973440">
        <ele>1495.800</ele>
        <time>2021-04-24T15:52:37Z</time>
        <name>WPT.1</name>
      </trkpt>
      <trkpt lat="33.344807400" lon="-106.009020900">
        <ele>1496.700</ele>
        <time>2021-04-24T15:52:41Z</time>
        <name>WPT.2</name>
      </trkpt>
      <trkpt lat="33.344788680" lon="-106.008976440">
        <ele>1496.400</ele>
        <time>2021-04-24T15:53:07Z</time>
        <name>WPT.3</name>
      </trkpt>
      <trkpt lat="33.344788340" lon="-106.008928270">
        <ele>1496.500</ele>
        <time>2021-04-24T15:53:11Z</time>
        <name>WPT.4</name>
      </trkpt>
      <trkpt lat="33.344815320" lon="-106.008883210">
        <ele>1497.000</ele>
        <time>2021-04-24T15:53:15Z</time>
        <name>WPT.5</name>
      </trkpt>
      <trkpt lat="33.344833960" lon="-106.008844930">
        <ele>1497.600</ele>
        <time>2021-04-24T15:53:18Z</time>
        <name>WPT.6</name>
      </trkpt>
      <trkpt lat="33.344851490" lon="-106.008800490">
        <ele>1497.400</ele>
        <time>2021-04-24T15:53:22Z</time>
        <name>WPT.7</name>
      </trkpt>
      <trkpt lat="33.344879980" lon="-106.008761310">
        <ele>1498.200</ele>
        <time>2021-04-24T15:53:26Z</time>
        <name>WPT.8</name>
      </trkpt>
      <trkpt lat="33.344902550" lon="-106.008718960">
        <ele>1498.800</ele>
        <time>2021-04-24T15:53:31Z</time>
        <name>WPT.9</name>
      </trkpt>
      <trkpt lat="33.344913910" lon="-106.008672520">
        <ele>1498.900</ele>
        <time>2021-04-24T15:53:35Z</time>
        <name>WPT.10</name>
      </trkpt>
      <trkpt lat="33.344928720" lon="-106.008632590">
        <ele>1499.500</ele>
        <time>2021-04-24T15:53:38Z</time>
        <name>WPT.11</name>
      </trkpt>
      <trkpt lat="33.344960790" lon="-106.008594270">
        <ele>1499.300</ele>
        <time>2021-04-24T15:53:42Z</time>
        <name>WPT.12</name>
      </trkpt>
      <trkpt lat="33.344977390" lon="-106.008555410">
        <ele>1499.700</ele>
        <time>2021-04-24T15:53:45Z</time>
        <name>WPT.13</name>
      </trkpt>
      <trkpt lat="33.345001500" lon="-106.008505790">
        <ele>1499.200</ele>
        <time>2021-04-24T15:53:49Z</time>
        <name>WPT.14</name>
      </trkpt>
      <trkpt lat="33.345037640" lon="-106.008485190">
        <ele>1499.900</ele>
        <time>2021-04-24T15:53:53Z</time>
        <name>WPT.15</name>
      </trkpt>
      <trkpt lat="33.345074010" lon="-106.008496780">
        <ele>1500.100</ele>
        <time>2021-04-24T15:53:57Z</time>
        <name>WPT.16</name>
      </trkpt>
      <trkpt lat="33.345103890" lon="-106.008528230">
        <ele>1498.700</ele>
        <time>2021-04-24T15:55:38Z</time>
        <name>WPT.17</name>
      </trkpt>
      <trkpt lat="33.345084810" lon="-106.008564800">
        <ele>1499.700</ele>
        <time>2021-04-24T15:55:41Z</time>
        <name>WPT.18</name>
      </trkpt>
      <trkpt lat="33.345066760" lon="-106.008615740">
        <ele>1499.400</ele>
        <time>2021-04-24T15:55:45Z</time>
        <name>WPT.19</name>
      </trkpt>
      <trkpt lat="33.345053080" lon="-106.008664210">
        <ele>1498.900</ele>
        <time>2021-04-24T15:55:49Z</time>
        <name>WPT.20</name>
      </trkpt>
      <trkpt lat="33.345031520" lon="-106.008706390">
        <ele>1499.600</ele>
        <time>2021-04-24T15:55:53Z</time>
        <name>WPT.21</name>
      </trkpt>
      <trkpt lat="33.345008520" lon="-106.008751650">
        <ele>1500.200</ele>
        <time>2021-04-24T15:55:57Z</time>
        <name>WPT.22</name>
      </trkpt>
      <trkpt lat="33.344988880" lon="-106.008802490">
        <ele>1500.400</ele>
        <time>2021-04-24T15:56:01Z</time>
        <name>WPT.23</name>
      </trkpt>
      <trkpt lat="33.344968960" lon="-106.008847590">
        <ele>1501.400</ele>
        <time>2021-04-24T15:56:05Z</time>
        <name>WPT.24</name>
      </trkpt>
      <trkpt lat="33.344937870" lon="-106.008880510">
        <ele>1501.400</ele>
        <time>2021-04-24T15:56:09Z</time>
        <name>WPT.25</name>
      </trkpt>
      <trkpt lat="33.344908180" lon="-106.008907470">
        <ele>1501.400</ele>
        <time>2021-04-24T15:56:13Z</time>
        <name>WPT.26</name>
      </trkpt>
      <trkpt lat="33.344876780" lon="-106.008941860">
        <ele>1500.800</ele>
        <time>2021-04-24T15:56:18Z</time>
        <name>WPT.27</name>
      </trkpt>
      <trkpt lat="33.344842260" lon="-106.008960490">
        <ele>1500.500</ele>
        <time>2021-04-24T15:56:23Z</time>
        <name>WPT.28</name>
      </trkpt>
      <trkpt lat="33.344804980" lon="-106.008977050">
        <ele>1500.100</ele>
        <time>2021-04-24T15:56:30Z</time>
        <name>WPT.29</name>
      </trkpt>
      <trkpt lat="33.344792960" lon="-106.009020330">
        <ele>1497.300</ele>
        <time>2021-04-24T15:58:09Z</time>
        <name>WPT.30</name>
      </trkpt>
      <trkpt lat="33.344767130" lon="-106.009055350">
        <ele>1497.900</ele>
        <time>2021-04-24T15:58:17Z</time>
        <name>WPT.31</name>
      </trkpt>
      <trkpt lat="33.344754100" lon="-106.009104770">
        <ele>1498.500</ele>
        <time>2021-04-24T15:58:25Z</time>
        <name>WPT.32</name>
      </trkpt>
      <trkpt lat="33.344750540" lon="-106.009153710">
        <ele>1499.000</ele>
        <time>2021-04-24T15:58:29Z</time>
        <name>WPT.33</name>
      </trkpt>
      <trkpt lat="33.344746420" lon="-106.009197970">
        <ele>1499.600</ele>
        <time>2021-04-24T15:58:33Z</time>
        <name>WPT.34</name>
      </trkpt>
      <trkpt lat="33.344750710" lon="-106.009249250">
        <ele>1499.200</ele>
        <time>2021-04-24T15:58:38Z</time>
        <name>WPT.35</name>
      </trkpt>
      <trkpt lat="33.344772200" lon="-106.009294280">
        <ele>1497.800</ele>
        <time>2021-04-24T15:59:48Z</time>
        <name>WPT.36</name>
      </trkpt>
      <trkpt lat="33.344786370" lon="-106.009334690">
        <ele>1497.400</ele>
        <time>2021-04-24T15:59:51Z</time>
        <name>WPT.37</name>
      </trkpt>
      <trkpt lat="33.344791630" lon="-106.009377310">
        <ele>1497.500</ele>
        <time>2021-04-24T15:59:55Z</time>
        <name>WPT.38</name>
      </trkpt>
      <trkpt lat="33.344806390" lon="-106.009419860">
        <ele>1496.500</ele>
        <time>2021-04-24T15:59:59Z</time>
        <name>WPT.39</name>
      </trkpt>
      <trkpt lat="33.344805660" lon="-106.009473420">
        <ele>1495.800</ele>
        <time>2021-04-24T16:00:03Z</time>
        <name>WPT.40</name>
      </trkpt>
      <trkpt lat="33.344793810" lon="-106.009515760">
        <ele>1496.000</ele>
        <time>2021-04-24T16:00:07Z</time>
        <name>WPT.41</name>
      </trkpt>
      <trkpt lat="33.344772250" lon="-106.009559180">
        <ele>1495.900</ele>
        <time>2021-04-24T16:00:12Z</time>
        <name>WPT.42</name>
      </trkpt>
      <trkpt lat="33.344759510" lon="-106.009601050">
        <ele>1496.300</ele>
        <time>2021-04-24T16:00:15Z</time>
        <name>WPT.43</name>
      </trkpt>
      <trkpt lat="33.344745640" lon="-106.009643220">
        <ele>1496.200</ele>
        <time>2021-04-24T16:00:18Z</time>
        <name>WPT.44</name>
      </trkpt>
      <trkpt lat="33.344739350" lon="-106.009685940">
        <ele>1496.300</ele>
        <time>2021-04-24T16:00:21Z</time>
        <name>WPT.45</name>
      </trkpt>
      <trkpt lat="33.344731690" lon="-106.009729020">
        <ele>1496.900</ele>
        <time>2021-04-24T16:00:24Z</time>
        <name>WPT.46</name>
      </trkpt>
      <trkpt lat="33.344723240" lon="-106.009772890">
        <ele>1496.500</ele>
        <time>2021-04-24T16:00:27Z</time>
        <name>WPT.47</name>
      </trkpt>
      <trkpt lat="33.344711220" lon="-106.009820500">
        <ele>1495.700</ele>
        <time>2021-04-24T16:00:31Z</time>
        <name>WPT.48</name>
      </trkpt>
      <trkpt lat="33.344701280" lon="-106.009867030">
        <ele>1496.200</ele>
        <time>2021-04-24T16:00:35Z</time>
        <name>WPT.49</name>
      </trkpt>
      <trkpt lat="33.344682820" lon="-106.009915780">
        <ele>1496.500</ele>
        <time>2021-04-24T16:00:39Z</time>
        <name>WPT.50</name>
      </trkpt>
      <trkpt lat="33.344664800" lon="-106.009959360">
        <ele>1496.800</ele>
        <time>2021-04-24T16:00:43Z</time>
        <name>WPT.51</name>
      </trkpt>
      <trkpt lat="33.344649210" lon="-106.009999950">
        <ele>1497.200</ele>
        <time>2021-04-24T16:00:47Z</time>
        <name>WPT.52</name>
      </trkpt>
      <trkpt lat="33.344627330" lon="-106.010036460">
        <ele>1498.000</ele>
        <time>2021-04-24T16:00:51Z</time>
        <name>WPT.53</name>
      </trkpt>
      <trkpt lat="33.344605150" lon="-106.010081320">
        <ele>1497.900</ele>
        <time>2021-04-24T16:00:56Z</time>
        <name>WPT.54</name>
      </trkpt>
      <trkpt lat="33.344576440" lon="-106.010117120">
        <ele>1497.800</ele>
        <time>2021-04-24T16:01:01Z</time>
        <name>WPT.55</name>
      </trkpt>
      <trkpt lat="33.344554530" lon="-106.010153990">
        <ele>1498.500</ele>
        <time>2021-04-24T16:01:05Z</time>
        <name>WPT.56</name>
      </trkpt>
      <trkpt lat="33.344525700" lon="-106.010180790">
        <ele>1498.500</ele>
        <time>2021-04-24T16:01:11Z</time>
        <name>WPT.57</name>
      </trkpt>
      <trkpt lat="33.344563600" lon="-106.010159260">
        <ele>1496.200</ele>
        <time>2021-04-24T16:01:26Z</time>
        <name>WPT.58</name>
      </trkpt>
      <trkpt lat="33.344588190" lon="-106.010120270">
        <ele>1495.900</ele>
        <time>2021-04-24T16:01:30Z</time>
        <name>WPT.59</name>
      </trkpt>
      <trkpt lat="33.344620250" lon="-106.010099040">
        <ele>1496.300</ele>
        <time>2021-04-24T16:01:35Z</time>
        <name>WPT.60</name>
      </trkpt>
      <trkpt lat="33.344626450" lon="-106.010153200">
        <ele>1496.400</ele>
        <time>2021-04-24T16:01:40Z</time>
        <name>WPT.61</name>
      </trkpt>
      <trkpt lat="33.344642570" lon="-106.010194090">
        <ele>1496.300</ele>
        <time>2021-04-24T16:01:44Z</time>
        <name>WPT.62</name>
      </trkpt>
      <trkpt lat="33.344665460" lon="-106.010227570">
        <ele>1496.200</ele>
        <time>2021-04-24T16:01:48Z</time>
        <name>WPT.63</name>
      </trkpt>
      <trkpt lat="33.344701790" lon="-106.010241530">
        <ele>1497.000</ele>
        <time>2021-04-24T16:01:53Z</time>
        <name>WPT.64</name>
      </trkpt>
      <trkpt lat="33.344739710" lon="-106.010261440">
        <ele>1497.400</ele>
        <time>2021-04-24T16:02:01Z</time>
        <name>WPT.65</name>
      </trkpt>
      <trkpt lat="33.344776760" lon="-106.010276600">
        <ele>1497.900</ele>
        <time>2021-04-24T16:02:05Z</time>
        <name>WPT.66</name>
      </trkpt>
      <trkpt lat="33.344813010" lon="-106.010286210">
        <ele>1498.200</ele>
        <time>2021-04-24T16:02:09Z</time>
        <name>WPT.67</name>
      </trkpt>
      <trkpt lat="33.344851090" lon="-106.010286800">
        <ele>1498.500</ele>
        <time>2021-04-24T16:02:14Z</time>
        <name>WPT.68</name>
      </trkpt>
      <trkpt lat="33.344891280" lon="-106.010282190">
        <ele>1498.900</ele>
        <time>2021-04-24T16:02:23Z</time>
        <name>WPT.69</name>
      </trkpt>
      <trkpt lat="33.344932660" lon="-106.010279700">
        <ele>1498.700</ele>
        <time>2021-04-24T16:02:26Z</time>
        <name>WPT.70</name>
      </trkpt>
      <trkpt lat="33.344971230" lon="-106.010264670">
        <ele>1499.100</ele>
        <time>2021-04-24T16:02:34Z</time>
        <name>WPT.71</name>
      </trkpt>
      <trkpt lat="33.345008840" lon="-106.010255710">
        <ele>1501.100</ele>
        <time>2021-04-24T16:02:50Z</time>
        <name>WPT.72</name>
      </trkpt>
      <trkpt lat="33.345048230" lon="-106.010247110">
        <ele>1500.700</ele>
        <time>2021-04-24T16:03:29Z</time>
        <name>WPT.73</name>
      </trkpt>
      <trkpt lat="33.345076870" lon="-106.010217900">
        <ele>1501.500</ele>
        <time>2021-04-24T16:03:40Z</time>
        <name>WPT.74</name>
      </trkpt>
      <trkpt lat="33.345078010" lon="-106.010169620">
        <ele>1501.100</ele>
        <time>2021-04-24T16:03:48Z</time>
        <name>WPT.75</name>
      </trkpt>
      <trkpt lat="33.345096890" lon="-106.010129850">
        <ele>1501.400</ele>
        <time>2021-04-24T16:03:55Z</time>
        <name>WPT.76</name>
      </trkpt>
      <trkpt lat="33.345102170" lon="-106.010177310">
        <ele>1501.400</ele>
        <time>2021-04-24T16:04:59Z</time>
        <name>WPT.77</name>
      </trkpt>
      <trkpt lat="33.345143210" lon="-106.010179770">
        <ele>1501.800</ele>
        <time>2021-04-24T16:05:04Z</time>
        <name>WPT.78</name>
      </trkpt>
      <trkpt lat="33.345181950" lon="-106.010179990">
        <ele>1502.700</ele>
        <time>2021-04-24T16:05:08Z</time>
        <name>WPT.79</name>
      </trkpt>
      <trkpt lat="33.345219830" lon="-106.010185120">
        <ele>1503.000</ele>
        <time>2021-04-24T16:05:14Z</time>
        <name>WPT.80</name>
      </trkpt>
      <trkpt lat="33.345250150" lon="-106.010158080">
        <ele>1502.200</ele>
        <time>2021-04-24T16:05:21Z</time>
        <name>WPT.81</name>
      </trkpt>
      <trkpt lat="33.345289170" lon="-106.010156650">
        <ele>1504.600</ele>
        <time>2021-04-24T16:05:40Z</time>
        <name>WPT.82</name>
      </trkpt>
      <trkpt lat="33.345326060" lon="-106.010168610">
        <ele>1504.500</ele>
        <time>2021-04-24T16:06:49Z</time>
        <name>WPT.83</name>
      </trkpt>
      <trkpt lat="33.345362020" lon="-106.010177490">
        <ele>1506.900</ele>
        <time>2021-04-24T16:06:55Z</time>
        <name>WPT.84</name>
      </trkpt>
      <trkpt lat="33.345390720" lon="-106.010213430">
        <ele>1507.300</ele>
        <time>2021-04-24T16:07:18Z</time>
        <name>WPT.85</name>
      </trkpt>
      <trkpt lat="33.345399990" lon="-106.010256040">
        <ele>1509.100</ele>
        <time>2021-04-24T16:08:04Z</time>
        <name>WPT.86</name>
      </trkpt>
      <trkpt lat="33.345380340" lon="-106.010299330">
        <ele>1508.500</ele>
        <time>2021-04-24T16:09:31Z</time>
        <name>WPT.87</name>
      </trkpt>
      <trkpt lat="33.345384800" lon="-106.010350730">
        <ele>1507.900</ele>
        <time>2021-04-24T16:10:06Z</time>
        <name>WPT.88</name>
      </trkpt>
      <trkpt lat="33.345417920" lon="-106.010370380">
        <ele>1508.200</ele>
        <time>2021-04-24T16:10:12Z</time>
        <name>WPT.89</name>
      </trkpt>
      <trkpt lat="33.345453340" lon="-106.010383930">
        <ele>1507.200</ele>
        <time>2021-04-24T16:10:26Z</time>
        <name>WPT.90</name>
      </trkpt>
      <trkpt lat="33.345445800" lon="-106.010429260">
        <ele>1508.900</ele>
        <time>2021-04-24T16:11:22Z</time>
        <name>WPT.91</name>
      </trkpt>
      <trkpt lat="33.345470580" lon="-106.010397340">
        <ele>1510.000</ele>
        <time>2021-04-24T16:12:02Z</time>
        <name>WPT.92</name>
      </trkpt>
      <trkpt lat="33.345507070" lon="-106.010419950">
        <ele>1510.000</ele>
        <time>2021-04-24T16:12:11Z</time>
        <name>WPT.93</name>
      </trkpt>
      <trkpt lat="33.345540380" lon="-106.010439390">
        <ele>1510.600</ele>
        <time>2021-04-24T16:12:23Z</time>
        <name>WPT.94</name>
      </trkpt>
      <trkpt lat="33.345581210" lon="-106.010444940">
        <ele>1511.100</ele>
        <time>2021-04-24T16:12:31Z</time>
        <name>WPT.95</name>
      </trkpt>
      <trkpt lat="33.345618320" lon="-106.010463330">
        <ele>1510.400</ele>
        <time>2021-04-24T16:12:58Z</time>
        <name>WPT.96</name>
      </trkpt>
      <trkpt lat="33.345641300" lon="-106.010500070">
        <ele>1510.200</ele>
        <time>2021-04-24T16:13:54Z</time>
        <name>WPT.97</name>
      </trkpt>
      <trkpt lat="33.345655570" lon="-106.010543280">
        <ele>1511.300</ele>
        <time>2021-04-24T16:15:01Z</time>
        <name>WPT.98</name>
      </trkpt>
      <trkpt lat="33.345688330" lon="-106.010564380">
        <ele>1511.800</ele>
        <time>2021-04-24T16:15:08Z</time>
        <name>WPT.99</name>
      </trkpt>
      <trkpt lat="33.345704210" lon="-106.010603270">
        <ele>1511.400</ele>
        <time>2021-04-24T16:15:47Z</time>
        <name>WPT.100</name>
      </trkpt>
      <trkpt lat="33.345737290" lon="-106.010627170">
        <ele>1511.700</ele>
        <time>2021-04-24T16:15:55Z</time>
        <name>WPT.101</name>
      </trkpt>
      <trkpt lat="33.345773000" lon="-106.010647900">
        <ele>1510.200</ele>
        <time>2021-04-24T16:16:05Z</time>
        <name>WPT.102</name>
      </trkpt>
      <trkpt lat="33.345811480" lon="-106.010631580">
        <ele>1511.400</ele>
        <time>2021-04-24T16:16:23Z</time>
        <name>WPT.103</name>
      </trkpt>
      <trkpt lat="33.345852270" lon="-106.010635050">
        <ele>1511.800</ele>
        <time>2021-04-24T16:16:29Z</time>
        <name>WPT.104</name>
      </trkpt>
      <trkpt lat="33.345887910" lon="-106.010641650">
        <ele>1511.800</ele>
        <time>2021-04-24T16:16:38Z</time>
        <name>WPT.105</name>
      </trkpt>
      <trkpt lat="33.345923340" lon="-106.010657110">
        <ele>1512.800</ele>
        <time>2021-04-24T16:16:47Z</time>
        <name>WPT.106</name>
      </trkpt>
      <trkpt lat="33.345955370" lon="-106.010682370">
        <ele>1511.300</ele>
        <time>2021-04-24T16:16:55Z</time>
        <name>WPT.107</name>
      </trkpt>
      <trkpt lat="33.345997980" lon="-106.010686520">
        <ele>1511.500</ele>
        <time>2021-04-24T16:17:04Z</time>
        <name>WPT.108</name>
      </trkpt>
      <trkpt lat="33.346029380" lon="-106.010708730">
        <ele>1510.100</ele>
        <time>2021-04-24T16:17:19Z</time>
        <name>WPT.109</name>
      </trkpt>
      <trkpt lat="33.346055110" lon="-106.010746830">
        <ele>1511.500</ele>
        <time>2021-04-24T16:17:46Z</time>
        <name>WPT.110</name>
      </trkpt>
      <trkpt lat="33.346089150" lon="-106.010767950">
        <ele>1512.500</ele>
        <time>2021-04-24T16:18:14Z</time>
        <name>WPT.111</name>
      </trkpt>
      <trkpt lat="33.346117140" lon="-106.010739640">
        <ele>1516.000</ele>
        <time>2021-04-24T16:18:30Z</time>
        <name>WPT.112</name>
      </trkpt>
      <trkpt lat="33.346153230" lon="-106.010731410">
        <ele>1514.800</ele>
        <time>2021-04-24T16:18:48Z</time>
        <name>WPT.113</name>
      </trkpt>
      <trkpt lat="33.346185650" lon="-106.010759350">
        <ele>1515.100</ele>
        <time>2021-04-24T16:19:33Z</time>
        <name>WPT.114</name>
      </trkpt>
      <trkpt lat="33.346213300" lon="-106.010796740">
        <ele>1516.000</ele>
        <time>2021-04-24T16:19:39Z</time>
        <name>WPT.115</name>
      </trkpt>
      <trkpt lat="33.346241740" lon="-106.010823740">
        <ele>1516.000</ele>
        <time>2021-04-24T16:19:44Z</time>
        <name>WPT.116</name>
      </trkpt>
      <trkpt lat="33.346269340" lon="-106.010854810">
        <ele>1516.600</ele>
        <time>2021-04-24T16:19:50Z</time>
        <name>WPT.117</name>
      </trkpt>
      <trkpt lat="33.346301640" lon="-106.010882410">
        <ele>1515.800</ele>
        <time>2021-04-24T16:19:57Z</time>
        <name>WPT.118</name>
      </trkpt>
      <trkpt lat="33.346333840" lon="-106.010905520">
        <ele>1518.400</ele>
        <time>2021-04-24T16:20:06Z</time>
        <name>WPT.119</name>
      </trkpt>
      <trkpt lat="33.346354550" lon="-106.010945240">
        <ele>1518.500</ele>
        <time>2021-04-24T16:20:13Z</time>
        <name>WPT.120</name>
      </trkpt>
      <trkpt lat="33.346383030" lon="-106.010974870">
        <ele>1517.800</ele>
        <time>2021-04-24T16:20:20Z</time>
        <name>WPT.121</name>
      </trkpt>
      <trkpt lat="33.346421020" lon="-106.010994530">
        <ele>1518.300</ele>
        <time>2021-04-24T16:20:28Z</time>
        <name>WPT.122</name>
      </trkpt>
      <trkpt lat="33.346449180" lon="-106.011021440">
        <ele>1516.800</ele>
        <time>2021-04-24T16:21:00Z</time>
        <name>WPT.123</name>
      </trkpt>
      <trkpt lat="33.346465800" lon="-106.011068850">
        <ele>1517.400</ele>
        <time>2021-04-24T16:21:10Z</time>
        <name>WPT.124</name>
      </trkpt>
      <trkpt lat="33.346484850" lon="-106.011114350">
        <ele>1515.800</ele>
        <time>2021-04-24T16:21:16Z</time>
        <name>WPT.125</name>
      </trkpt>
      <trkpt lat="33.346484870" lon="-106.011161660">
        <ele>1516.100</ele>
        <time>2021-04-24T16:21:22Z</time>
        <name>WPT.126</name>
      </trkpt>
      <trkpt lat="33.346475540" lon="-106.011209980">
        <ele>1515.500</ele>
        <time>2021-04-24T16:21:29Z</time>
        <name>WPT.127</name>
      </trkpt>
      <trkpt lat="33.346479530" lon="-106.011253430">
        <ele>1514.600</ele>
        <time>2021-04-24T16:21:35Z</time>
        <name>WPT.128</name>
      </trkpt>
      <trkpt lat="33.346471210" lon="-106.011302820">
        <ele>1514.100</ele>
        <time>2021-04-24T16:22:03Z</time>
        <name>WPT.129</name>
      </trkpt>
      <trkpt lat="33.346476440" lon="-106.011351230">
        <ele>1514.300</ele>
        <time>2021-04-24T16:22:15Z</time>
        <name>WPT.130</name>
      </trkpt>
      <trkpt lat="33.346484400" lon="-106.011394780">
        <ele>1514.400</ele>
        <time>2021-04-24T16:22:21Z</time>
        <name>WPT.131</name>
      </trkpt>
      <trkpt lat="33.346516040" lon="-106.011420580">
        <ele>1513.800</ele>
        <time>2021-04-24T16:22:34Z</time>
        <name>WPT.132</name>
      </trkpt>
      <trkpt lat="33.346552590" lon="-106.011432080">
        <ele>1513.400</ele>
        <time>2021-04-24T16:22:41Z</time>
        <name>WPT.133</name>
      </trkpt>
      <trkpt lat="33.346589930" lon="-106.011422730">
        <ele>1514.900</ele>
        <time>2021-04-24T16:22:49Z</time>
        <name>WPT.134</name>
      </trkpt>
      <trkpt lat="33.346626660" lon="-106.011421190">
        <ele>1515.500</ele>
        <time>2021-04-24T16:23:32Z</time>
        <name>WPT.135</name>
      </trkpt>
      <trkpt lat="33.346669750" lon="-106.011420860">
        <ele>1518.000</ele>
        <time>2021-04-24T16:23:46Z</time>
        <name>WPT.136</name>
      </trkpt>
      <trkpt lat="33.346705480" lon="-106.011402110">
        <ele>1518.500</ele>
        <time>2021-04-24T16:23:52Z</time>
        <name>WPT.137</name>
      </trkpt>
      <trkpt lat="33.346744560" lon="-106.011391130">
        <ele>1519.400</ele>
        <time>2021-04-24T16:23:59Z</time>
        <name>WPT.138</name>
      </trkpt>
      <trkpt lat="33.346780660" lon="-106.011412710">
        <ele>1519.200</ele>
        <time>2021-04-24T16:24:05Z</time>
        <name>WPT.139</name>
      </trkpt>
      <trkpt lat="33.346818140" lon="-106.011415790">
        <ele>1520.500</ele>
        <time>2021-04-24T16:24:10Z</time>
        <name>WPT.140</name>
      </trkpt>
      <trkpt lat="33.346855450" lon="-106.011428180">
        <ele>1521.800</ele>
        <time>2021-04-24T16:24:15Z</time>
        <name>WPT.141</name>
      </trkpt>
      <trkpt lat="33.346891670" lon="-106.011407620">
        <ele>1521.300</ele>
        <time>2021-04-24T16:24:32Z</time>
        <name>WPT.142</name>
      </trkpt>
      <trkpt lat="33.346933580" lon="-106.011409330">
        <ele>1522.600</ele>
        <time>2021-04-24T16:24:37Z</time>
        <name>WPT.143</name>
      </trkpt>
      <trkpt lat="33.346970270" lon="-106.011409930">
        <ele>1523.500</ele>
        <time>2021-04-24T16:24:46Z</time>
        <name>WPT.144</name>
      </trkpt>
      <trkpt lat="33.347013700" lon="-106.011411930">
        <ele>1524.200</ele>
        <time>2021-04-24T16:24:52Z</time>
        <name>WPT.145</name>
      </trkpt>
      <trkpt lat="33.347049000" lon="-106.011393690">
        <ele>1525.300</ele>
        <time>2021-04-24T16:26:00Z</time>
        <name>WPT.146</name>
      </trkpt>
      <trkpt lat="33.347067930" lon="-106.011355620">
        <ele>1525.800</ele>
        <time>2021-04-24T16:26:14Z</time>
        <name>WPT.147</name>
      </trkpt>
      <trkpt lat="33.347085860" lon="-106.011313930">
        <ele>1526.300</ele>
        <time>2021-04-24T16:26:23Z</time>
        <name>WPT.148</name>
      </trkpt>
      <trkpt lat="33.347063750" lon="-106.011277550">
        <ele>1526.500</ele>
        <time>2021-04-24T16:27:26Z</time>
        <name>WPT.149</name>
      </trkpt>
      <trkpt lat="33.347102300" lon="-106.011278150">
        <ele>1528.500</ele>
        <time>2021-04-24T16:28:46Z</time>
        <name>WPT.150</name>
      </trkpt>
      <trkpt lat="33.347137210" lon="-106.011299870">
        <ele>1527.100</ele>
        <time>2021-04-24T16:29:23Z</time>
        <name>WPT.151</name>
      </trkpt>
      <trkpt lat="33.347175260" lon="-106.011317100">
        <ele>1524.600</ele>
        <time>2021-04-24T16:29:35Z</time>
        <name>WPT.152</name>
      </trkpt>
      <trkpt lat="33.347211260" lon="-106.011326510">
        <ele>1524.300</ele>
        <time>2021-04-24T16:29:59Z</time>
        <name>WPT.153</name>
      </trkpt>
      <trkpt lat="33.347253120" lon="-106.011344650">
        <ele>1524.600</ele>
        <time>2021-04-24T16:30:10Z</time>
        <name>WPT.154</name>
      </trkpt>
      <trkpt lat="33.347288620" lon="-106.011332940">
        <ele>1524.300</ele>
        <time>2021-04-24T16:30:24Z</time>
        <name>WPT.155</name>
      </trkpt>
      <trkpt lat="33.347301250" lon="-106.011285730">
        <ele>1524.800</ele>
        <time>2021-04-24T16:30:35Z</time>
        <name>WPT.156</name>
      </trkpt>
      <trkpt lat="33.347339170" lon="-106.011291950">
        <ele>1521.200</ele>
        <time>2021-04-24T16:32:14Z</time>
        <name>WPT.157</name>
      </trkpt>
      <trkpt lat="33.347369240" lon="-106.011316110">
        <ele>1521.000</ele>
        <time>2021-04-24T16:32:20Z</time>
        <name>WPT.158</name>
      </trkpt>
      <trkpt lat="33.347399440" lon="-106.011342940">
        <ele>1521.400</ele>
        <time>2021-04-24T16:32:25Z</time>
        <name>WPT.159</name>
      </trkpt>
      <trkpt lat="33.347437230" lon="-106.011360010">
        <ele>1521.000</ele>
        <time>2021-04-24T16:32:31Z</time>
        <name>WPT.160</name>
      </trkpt>
      <trkpt lat="33.347476120" lon="-106.011359560">
        <ele>1520.200</ele>
        <time>2021-04-24T16:32:36Z</time>
        <name>WPT.161</name>
      </trkpt>
      <trkpt lat="33.347515910" lon="-106.011358180">
        <ele>1519.100</ele>
        <time>2021-04-24T16:32:41Z</time>
        <name>WPT.162</name>
      </trkpt>
      <trkpt lat="33.347540640" lon="-106.011398470">
        <ele>1517.600</ele>
        <time>2021-04-24T16:32:49Z</time>
        <name>WPT.163</name>
      </trkpt>
      <trkpt lat="33.347551830" lon="-106.011442500">
        <ele>1517.100</ele>
        <time>2021-04-24T16:32:55Z</time>
        <name>WPT.164</name>
      </trkpt>
      <trkpt lat="33.347584050" lon="-106.011478120">
        <ele>1516.600</ele>
        <time>2021-04-24T16:33:00Z</time>
        <name>WPT.165</name>
      </trkpt>
      <trkpt lat="33.347615720" lon="-106.011509160">
        <ele>1516.800</ele>
        <time>2021-04-24T16:33:04Z</time>
        <name>WPT.166</name>
      </trkpt>
      <trkpt lat="33.347648180" lon="-106.011529130">
        <ele>1516.800</ele>
        <time>2021-04-24T16:33:08Z</time>
        <name>WPT.167</name>
      </trkpt>
      <trkpt lat="33.347679830" lon="-106.011550090">
        <ele>1517.200</ele>
        <time>2021-04-24T16:33:13Z</time>
        <name>WPT.168</name>
      </trkpt>
      <trkpt lat="33.347711800" lon="-106.011580550">
        <ele>1516.400</ele>
        <time>2021-04-24T16:33:18Z</time>
        <name>WPT.169</name>
      </trkpt>
      <trkpt lat="33.347748940" lon="-106.011614150">
        <ele>1516.500</ele>
        <time>2021-04-24T16:33:23Z</time>
        <name>WPT.170</name>
      </trkpt>
      <trkpt lat="33.347724100" lon="-106.011579780">
        <ele>1516.700</ele>
        <time>2021-04-24T16:33:33Z</time>
        <name>WPT.171</name>
      </trkpt>
      <trkpt lat="33.347750090" lon="-106.011547660">
        <ele>1518.800</ele>
        <time>2021-04-24T16:33:49Z</time>
        <name>WPT.172</name>
      </trkpt>
      <trkpt lat="33.347776700" lon="-106.011578990">
        <ele>1520.500</ele>
        <time>2021-04-24T16:38:42Z</time>
        <name>WPT.173</name>
      </trkpt>
      <trkpt lat="33.347816860" lon="-106.011597580">
        <ele>1520.100</ele>
        <time>2021-04-24T16:40:01Z</time>
        <name>WPT.174</name>
      </trkpt>
      <trkpt lat="33.347855650" lon="-106.011585680">
        <ele>1521.500</ele>
        <time>2021-04-24T16:40:12Z</time>
        <name>WPT.175</name>
      </trkpt>
      <trkpt lat="33.347891930" lon="-106.011591830">
        <ele>1522.300</ele>
        <time>2021-04-24T16:40:19Z</time>
        <name>WPT.176</name>
      </trkpt>
      <trkpt lat="33.347930840" lon="-106.011607920">
        <ele>1521.500</ele>
        <time>2021-04-24T16:40:26Z</time>
        <name>WPT.177</name>
      </trkpt>
      <trkpt lat="33.347969200" lon="-106.011618340">
        <ele>1522.200</ele>
        <time>2021-04-24T16:40:35Z</time>
        <name>WPT.178</name>
      </trkpt>
      <trkpt lat="33.348005370" lon="-106.011634410">
        <ele>1522.700</ele>
        <time>2021-04-24T16:40:54Z</time>
        <name>WPT.179</name>
      </trkpt>
      <trkpt lat="33.348041810" lon="-106.011653880">
        <ele>1521.500</ele>
        <time>2021-04-24T16:41:00Z</time>
        <name>WPT.180</name>
      </trkpt>
      <trkpt lat="33.348072910" lon="-106.011678260">
        <ele>1520.300</ele>
        <time>2021-04-24T16:41:43Z</time>
        <name>WPT.181</name>
      </trkpt>
      <trkpt lat="33.348104590" lon="-106.011698870">
        <ele>1519.700</ele>
        <time>2021-04-24T16:41:58Z</time>
        <name>WPT.182</name>
      </trkpt>
      <trkpt lat="33.348110070" lon="-106.011745240">
        <ele>1518.400</ele>
        <time>2021-04-24T16:43:13Z</time>
        <name>WPT.183</name>
      </trkpt>
      <trkpt lat="33.348120950" lon="-106.011789710">
        <ele>1517.100</ele>
        <time>2021-04-24T16:43:20Z</time>
        <name>WPT.184</name>
      </trkpt>
      <trkpt lat="33.348146660" lon="-106.011824460">
        <ele>1518.100</ele>
        <time>2021-04-24T16:43:30Z</time>
        <name>WPT.185</name>
      </trkpt>
      <trkpt lat="33.348175780" lon="-106.011852180">
        <ele>1518.400</ele>
        <time>2021-04-24T16:43:37Z</time>
        <name>WPT.186</name>
      </trkpt>
      <trkpt lat="33.348208330" lon="-106.011874910">
        <ele>1519.700</ele>
        <time>2021-04-24T16:44:03Z</time>
        <name>WPT.187</name>
      </trkpt>
      <trkpt lat="33.348236620" lon="-106.011902070">
        <ele>1518.200</ele>
        <time>2021-04-24T16:44:10Z</time>
        <name>WPT.188</name>
      </trkpt>
      <trkpt lat="33.348272570" lon="-106.011922420">
        <ele>1517.600</ele>
        <time>2021-04-24T16:44:20Z</time>
        <name>WPT.189</name>
      </trkpt>
      <trkpt lat="33.348310080" lon="-106.011925510">
        <ele>1517.400</ele>
        <time>2021-04-24T16:44:26Z</time>
        <name>WPT.190</name>
      </trkpt>
      <trkpt lat="33.348347280" lon="-106.011922170">
        <ele>1517.600</ele>
        <time>2021-04-24T16:44:32Z</time>
        <name>WPT.191</name>
      </trkpt>
      <trkpt lat="33.348382810" lon="-106.011930240">
        <ele>1517.900</ele>
        <time>2021-04-24T16:44:41Z</time>
        <name>WPT.192</name>
      </trkpt>
      <trkpt lat="33.348412060" lon="-106.011959550">
        <ele>1518.300</ele>
        <time>2021-04-24T16:44:48Z</time>
        <name>WPT.193</name>
      </trkpt>
      <trkpt lat="33.348444790" lon="-106.011981620">
        <ele>1519.400</ele>
        <time>2021-04-24T16:45:02Z</time>
        <name>WPT.194</name>
      </trkpt>
      <trkpt lat="33.348480740" lon="-106.012003650">
        <ele>1519.000</ele>
        <time>2021-04-24T16:45:14Z</time>
        <name>WPT.195</name>
      </trkpt>
      <trkpt lat="33.348522840" lon="-106.012014170">
        <ele>1516.000</ele>
        <time>2021-04-24T16:46:22Z</time>
        <name>WPT.196</name>
      </trkpt>
      <trkpt lat="33.348562240" lon="-106.012026560">
        <ele>1516.300</ele>
        <time>2021-04-24T16:46:30Z</time>
        <name>WPT.197</name>
      </trkpt>
      <trkpt lat="33.348599450" lon="-106.012020090">
        <ele>1516.700</ele>
        <time>2021-04-24T16:46:38Z</time>
        <name>WPT.198</name>
      </trkpt>
      <trkpt lat="33.348635330" lon="-106.012009060">
        <ele>1517.500</ele>
        <time>2021-04-24T16:46:45Z</time>
        <name>WPT.199</name>
      </trkpt>
      <trkpt lat="33.348670450" lon="-106.011996270">
        <ele>1519.100</ele>
        <time>2021-04-24T16:47:13Z</time>
        <name>WPT.200</name>
      </trkpt>
      <trkpt lat="33.348708800" lon="-106.012009000">
        <ele>1518.400</ele>
        <time>2021-04-24T16:47:19Z</time>
        <name>WPT.201</name>
      </trkpt>
      <trkpt lat="33.348741210" lon="-106.011981330">
        <ele>1518.200</ele>
        <time>2021-04-24T16:47:27Z</time>
        <name>WPT.202</name>
      </trkpt>
      <trkpt lat="33.348773570" lon="-106.011960750">
        <ele>1517.800</ele>
        <time>2021-04-24T16:48:03Z</time>
        <name>WPT.203</name>
      </trkpt>
      <trkpt lat="33.348813980" lon="-106.011967390">
        <ele>1519.400</ele>
        <time>2021-04-24T16:48:46Z</time>
        <name>WPT.204</name>
      </trkpt>
      <trkpt lat="33.348848990" lon="-106.011988650">
        <ele>1521.000</ele>
        <time>2021-04-24T16:48:52Z</time>
        <name>WPT.205</name>
      </trkpt>
      <trkpt lat="33.348888560" lon="-106.012001170">
        <ele>1521.700</ele>
        <time>2021-04-24T16:48:59Z</time>
        <name>WPT.206</name>
      </trkpt>
      <trkpt lat="33.348924360" lon="-106.012006960">
        <ele>1522.200</ele>
        <time>2021-04-24T16:49:04Z</time>
        <name>WPT.207</name>
      </trkpt>
      <trkpt lat="33.348958890" lon="-106.012039270">
        <ele>1522.600</ele>
        <time>2021-04-24T16:49:35Z</time>
        <name>WPT.208</name>
      </trkpt>
      <trkpt lat="33.348990530" lon="-106.012066240">
        <ele>1522.400</ele>
        <time>2021-04-24T16:49:40Z</time>
        <name>WPT.209</name>
      </trkpt>
      <trkpt lat="33.349020810" lon="-106.012090780">
        <ele>1522.700</ele>
        <time>2021-04-24T16:49:44Z</time>
        <name>WPT.210</name>
      </trkpt>
      <trkpt lat="33.349050540" lon="-106.012124960">
        <ele>1523.400</ele>
        <time>2021-04-24T16:49:51Z</time>
        <name>WPT.211</name>
      </trkpt>
      <trkpt lat="33.349080840" lon="-106.012148490">
        <ele>1522.500</ele>
        <time>2021-04-24T16:49:55Z</time>
        <name>WPT.212</name>
      </trkpt>
      <trkpt lat="33.349117580" lon="-106.012178570">
        <ele>1523.000</ele>
        <time>2021-04-24T16:50:00Z</time>
        <name>WPT.213</name>
      </trkpt>
      <trkpt lat="33.349141510" lon="-106.012214110">
        <ele>1522.700</ele>
        <time>2021-04-24T16:50:04Z</time>
        <name>WPT.214</name>
      </trkpt>
      <trkpt lat="33.349168000" lon="-106.012253030">
        <ele>1522.900</ele>
        <time>2021-04-24T16:50:08Z</time>
        <name>WPT.215</name>
      </trkpt>
      <trkpt lat="33.349198070" lon="-106.012288200">
        <ele>1524.100</ele>
        <time>2021-04-24T16:50:13Z</time>
        <name>WPT.216</name>
      </trkpt>
      <trkpt lat="33.349224300" lon="-106.012321310">
        <ele>1523.800</ele>
        <time>2021-04-24T16:50:18Z</time>
        <name>WPT.217</name>
      </trkpt>
      <trkpt lat="33.349226200" lon="-106.012367190">
        <ele>1523.100</ele>
        <time>2021-04-24T16:50:23Z</time>
        <name>WPT.218</name>
      </trkpt>
      <trkpt lat="33.349257720" lon="-106.012401480">
        <ele>1524.200</ele>
        <time>2021-04-24T16:50:30Z</time>
        <name>WPT.219</name>
      </trkpt>
      <trkpt lat="33.349280360" lon="-106.012443850">
        <ele>1524.800</ele>
        <time>2021-04-24T16:50:36Z</time>
        <name>WPT.220</name>
      </trkpt>
      <trkpt lat="33.349303110" lon="-106.012487980">
        <ele>1525.400</ele>
        <time>2021-04-24T16:50:43Z</time>
        <name>WPT.221</name>
      </trkpt>
      <trkpt lat="33.349304010" lon="-106.012541080">
        <ele>1525.000</ele>
        <time>2021-04-24T16:50:49Z</time>
        <name>WPT.222</name>
      </trkpt>
      <trkpt lat="33.349299980" lon="-106.012587940">
        <ele>1525.900</ele>
        <time>2021-04-24T16:50:55Z</time>
        <name>WPT.223</name>
      </trkpt>
      <trkpt lat="33.349275820" lon="-106.012629560">
        <ele>1525.700</ele>
        <time>2021-04-24T16:51:01Z</time>
        <name>WPT.224</name>
      </trkpt>
      <trkpt lat="33.349264430" lon="-106.012674680">
        <ele>1525.800</ele>
        <time>2021-04-24T16:51:06Z</time>
        <name>WPT.225</name>
      </trkpt>
      <trkpt lat="33.349256150" lon="-106.012722460">
        <ele>1525.200</ele>
        <time>2021-04-24T16:51:12Z</time>
        <name>WPT.226</name>
      </trkpt>
      <trkpt lat="33.349252710" lon="-106.012768450">
        <ele>1527.300</ele>
        <time>2021-04-24T16:51:21Z</time>
        <name>WPT.227</name>
      </trkpt>
      <trkpt lat="33.349262840" lon="-106.012809840">
        <ele>1528.400</ele>
        <time>2021-04-24T16:51:33Z</time>
        <name>WPT.228</name>
      </trkpt>
      <trkpt lat="33.349252900" lon="-106.012855420">
        <ele>1527.900</ele>
        <time>2021-04-24T16:51:47Z</time>
        <name>WPT.229</name>
      </trkpt>
      <trkpt lat="33.349252640" lon="-106.012899440">
        <ele>1528.300</ele>
        <time>2021-04-24T16:52:03Z</time>
        <name>WPT.230</name>
      </trkpt>
      <trkpt lat="33.349272080" lon="-106.012937080">
        <ele>1528.400</ele>
        <time>2021-04-24T16:52:13Z</time>
        <name>WPT.231</name>
      </trkpt>
      <trkpt lat="33.349301100" lon="-106.012965650">
        <ele>1530.000</ele>
        <time>2021-04-24T16:52:53Z</time>
        <name>WPT.232</name>
      </trkpt>
      <trkpt lat="33.349316910" lon="-106.013008520">
        <ele>1529.400</ele>
        <time>2021-04-24T16:54:02Z</time>
        <name>WPT.233</name>
      </trkpt>
      <trkpt lat="33.349342810" lon="-106.013042660">
        <ele>1530.000</ele>
        <time>2021-04-24T16:54:08Z</time>
        <name>WPT.234</name>
      </trkpt>
      <trkpt lat="33.349315330" lon="-106.013008910">
        <ele>1529.400</ele>
        <time>2021-04-24T16:54:22Z</time>
        <name>WPT.235</name>
      </trkpt>
      <trkpt lat="33.349301550" lon="-106.012966820">
        <ele>1528.700</ele>
        <time>2021-04-24T16:54:30Z</time>
        <name>WPT.236</name>
      </trkpt>
      <trkpt lat="33.349268710" lon="-106.012947310">
        <ele>1528.300</ele>
        <time>2021-04-24T16:54:40Z</time>
        <name>WPT.237</name>
      </trkpt>
      <trkpt lat="33.349235200" lon="-106.012926720">
        <ele>1528.500</ele>
        <time>2021-04-24T16:54:49Z</time>
        <name>WPT.238</name>
      </trkpt>
      <trkpt lat="33.349235470" lon="-106.012881470">
        <ele>1528.400</ele>
        <time>2021-04-24T16:55:05Z</time>
        <name>WPT.239</name>
      </trkpt>
      <trkpt lat="33.349242290" lon="-106.012829510">
        <ele>1527.900</ele>
        <time>2021-04-24T16:55:11Z</time>
        <name>WPT.240</name>
      </trkpt>
      <trkpt lat="33.349239680" lon="-106.012784420">
        <ele>1526.700</ele>
        <time>2021-04-24T16:55:19Z</time>
        <name>WPT.241</name>
      </trkpt>
      <trkpt lat="33.349237470" lon="-106.012736450">
        <ele>1524.600</ele>
        <time>2021-04-24T16:55:25Z</time>
        <name>WPT.242</name>
      </trkpt>
      <trkpt lat="33.349239410" lon="-106.012692530">
        <ele>1524.200</ele>
        <time>2021-04-24T16:56:03Z</time>
        <name>WPT.243</name>
      </trkpt>
      <trkpt lat="33.349258260" lon="-106.012654890">
        <ele>1525.300</ele>
        <time>2021-04-24T16:56:43Z</time>
        <name>WPT.244</name>
      </trkpt>
      <trkpt lat="33.349274270" lon="-106.012614480">
        <ele>1524.600</ele>
        <time>2021-04-24T16:56:49Z</time>
        <name>WPT.245</name>
      </trkpt>
      <trkpt lat="33.349299850" lon="-106.012582040">
        <ele>1524.600</ele>
        <time>2021-04-24T16:56:56Z</time>
        <name>WPT.246</name>
      </trkpt>
      <trkpt lat="33.349294530" lon="-106.012532330">
        <ele>1524.000</ele>
        <time>2021-04-24T16:57:07Z</time>
        <name>WPT.247</name>
      </trkpt>
      <trkpt lat="33.349288760" lon="-106.012486940">
        <ele>1523.500</ele>
        <time>2021-04-24T16:57:12Z</time>
        <name>WPT.248</name>
      </trkpt>
      <trkpt lat="33.349281140" lon="-106.012440690">
        <ele>1523.900</ele>
        <time>2021-04-24T16:57:18Z</time>
        <name>WPT.249</name>
      </trkpt>
      <trkpt lat="33.349261360" lon="-106.012403340">
        <ele>1523.800</ele>
        <time>2021-04-24T16:57:27Z</time>
        <name>WPT.250</name>
      </trkpt>
      <trkpt lat="33.349241790" lon="-106.012361650">
        <ele>1522.800</ele>
        <time>2021-04-24T16:57:33Z</time>
        <name>WPT.251</name>
      </trkpt>
      <trkpt lat="33.349223340" lon="-106.012323020">
        <ele>1522.900</ele>
        <time>2021-04-24T16:57:43Z</time>
        <name>WPT.252</name>
      </trkpt>
      <trkpt lat="33.349217630" lon="-106.012278480">
        <ele>1523.000</ele>
        <time>2021-04-24T16:57:50Z</time>
        <name>WPT.253</name>
      </trkpt>
      <trkpt lat="33.349190460" lon="-106.012238850">
        <ele>1523.200</ele>
        <time>2021-04-24T16:57:57Z</time>
        <name>WPT.254</name>
      </trkpt>
      <trkpt lat="33.349164690" lon="-106.012203120">
        <ele>1523.300</ele>
        <time>2021-04-24T16:58:03Z</time>
        <name>WPT.255</name>
      </trkpt>
      <trkpt lat="33.349143380" lon="-106.012167140">
        <ele>1522.800</ele>
        <time>2021-04-24T16:58:08Z</time>
        <name>WPT.256</name>
      </trkpt>
      <trkpt lat="33.349112910" lon="-106.012129810">
        <ele>1522.600</ele>
        <time>2021-04-24T16:58:14Z</time>
        <name>WPT.257</name>
      </trkpt>
      <trkpt lat="33.349074750" lon="-106.012107340">
        <ele>1522.200</ele>
        <time>2021-04-24T16:58:19Z</time>
        <name>WPT.258</name>
      </trkpt>
      <trkpt lat="33.349042500" lon="-106.012082410">
        <ele>1522.200</ele>
        <time>2021-04-24T16:58:25Z</time>
        <name>WPT.259</name>
      </trkpt>
      <trkpt lat="33.349017060" lon="-106.012049400">
        <ele>1521.600</ele>
        <time>2021-04-24T16:58:36Z</time>
        <name>WPT.260</name>
      </trkpt>
      <trkpt lat="33.348981600" lon="-106.012020660">
        <ele>1521.900</ele>
        <time>2021-04-24T16:58:42Z</time>
        <name>WPT.261</name>
      </trkpt>
      <trkpt lat="33.348945610" lon="-106.011993530">
        <ele>1522.900</ele>
        <time>2021-04-24T16:58:48Z</time>
        <name>WPT.262</name>
      </trkpt>
      <trkpt lat="33.348914920" lon="-106.011963840">
        <ele>1522.700</ele>
        <time>2021-04-24T16:58:53Z</time>
        <name>WPT.263</name>
      </trkpt>
      <trkpt lat="33.348885930" lon="-106.011931020">
        <ele>1522.900</ele>
        <time>2021-04-24T16:58:58Z</time>
        <name>WPT.264</name>
      </trkpt>
      <trkpt lat="33.348851930" lon="-106.011914360">
        <ele>1522.500</ele>
        <time>2021-04-24T16:59:03Z</time>
        <name>WPT.265</name>
      </trkpt>
      <trkpt lat="33.348814220" lon="-106.011884310">
        <ele>1522.600</ele>
        <time>2021-04-24T16:59:09Z</time>
        <name>WPT.266</name>
      </trkpt>
      <trkpt lat="33.348781350" lon="-106.011863870">
        <ele>1522.800</ele>
        <time>2021-04-24T16:59:13Z</time>
        <name>WPT.267</name>
      </trkpt>
      <trkpt lat="33.348748790" lon="-106.011835520">
        <ele>1522.700</ele>
        <time>2021-04-24T16:59:18Z</time>
        <name>WPT.268</name>
      </trkpt>
      <trkpt lat="33.348719020" lon="-106.011809440">
        <ele>1522.800</ele>
        <time>2021-04-24T16:59:22Z</time>
        <name>WPT.269</name>
      </trkpt>
      <trkpt lat="33.348683170" lon="-106.011787380">
        <ele>1522.700</ele>
        <time>2021-04-24T16:59:27Z</time>
        <name>WPT.270</name>
      </trkpt>
      <trkpt lat="33.348644880" lon="-106.011773560">
        <ele>1522.300</ele>
        <time>2021-04-24T16:59:32Z</time>
        <name>WPT.271</name>
      </trkpt>
      <trkpt lat="33.348616390" lon="-106.011742930">
        <ele>1522.200</ele>
        <time>2021-04-24T16:59:37Z</time>
        <name>WPT.272</name>
      </trkpt>
      <trkpt lat="33.348580140" lon="-106.011732880">
        <ele>1522.400</ele>
        <time>2021-04-24T16:59:42Z</time>
        <name>WPT.273</name>
      </trkpt>
      <trkpt lat="33.348537290" lon="-106.011740230">
        <ele>1523.000</ele>
        <time>2021-04-24T16:59:47Z</time>
        <name>WPT.274</name>
      </trkpt>
      <trkpt lat="33.348498020" lon="-106.011751770">
        <ele>1522.400</ele>
        <time>2021-04-24T16:59:53Z</time>
        <name>WPT.275</name>
      </trkpt>
      <trkpt lat="33.348463790" lon="-106.011777530">
        <ele>1522.200</ele>
        <time>2021-04-24T17:00:09Z</time>
        <name>WPT.276</name>
      </trkpt>
      <trkpt lat="33.348426990" lon="-106.011778730">
        <ele>1521.700</ele>
        <time>2021-04-24T17:00:17Z</time>
        <name>WPT.277</name>
      </trkpt>
      <trkpt lat="33.348388440" lon="-106.011772980">
        <ele>1522.000</ele>
        <time>2021-04-24T17:00:25Z</time>
        <name>WPT.278</name>
      </trkpt>
      <trkpt lat="33.348359960" lon="-106.011746270">
        <ele>1522.200</ele>
        <time>2021-04-24T17:00:31Z</time>
        <name>WPT.279</name>
      </trkpt>
      <trkpt lat="33.348322580" lon="-106.011736330">
        <ele>1522.500</ele>
        <time>2021-04-24T17:00:38Z</time>
        <name>WPT.280</name>
      </trkpt>
      <trkpt lat="33.348307300" lon="-106.011695890">
        <ele>1523.900</ele>
        <time>2021-04-24T17:00:56Z</time>
        <name>WPT.281</name>
      </trkpt>
      <trkpt lat="33.348287450" lon="-106.011658740">
        <ele>1524.900</ele>
        <time>2021-04-24T17:01:07Z</time>
        <name>WPT.282</name>
      </trkpt>
      <trkpt lat="33.348250570" lon="-106.011644420">
        <ele>1525.200</ele>
        <time>2021-04-24T17:01:18Z</time>
        <name>WPT.283</name>
      </trkpt>
      <trkpt lat="33.348218510" lon="-106.011624080">
        <ele>1525.100</ele>
        <time>2021-04-24T17:01:29Z</time>
        <name>WPT.284</name>
      </trkpt>
      <trkpt lat="33.348179180" lon="-106.011615740">
        <ele>1523.400</ele>
        <time>2021-04-24T17:01:35Z</time>
        <name>WPT.285</name>
      </trkpt>
      <trkpt lat="33.348156370" lon="-106.011581500">
        <ele>1521.900</ele>
        <time>2021-04-24T17:01:44Z</time>
        <name>WPT.286</name>
      </trkpt>
      <trkpt lat="33.348133630" lon="-106.011541660">
        <ele>1520.800</ele>
        <time>2021-04-24T17:03:23Z</time>
        <name>WPT.287</name>
      </trkpt>
      <trkpt lat="33.348109500" lon="-106.011507220">
        <ele>1521.700</ele>
        <time>2021-04-24T17:03:37Z</time>
        <name>WPT.288</name>
      </trkpt>
      <trkpt lat="33.348072410" lon="-106.011503430">
        <ele>1522.000</ele>
        <time>2021-04-24T17:03:42Z</time>
        <name>WPT.289</name>
      </trkpt>
      <trkpt lat="33.348037230" lon="-106.011518380">
        <ele>1521.100</ele>
        <time>2021-04-24T17:04:05Z</time>
        <name>WPT.290</name>
      </trkpt>
      <trkpt lat="33.347998010" lon="-106.011511220">
        <ele>1521.400</ele>
        <time>2021-04-24T17:04:34Z</time>
        <name>WPT.291</name>
      </trkpt>
      <trkpt lat="33.347964120" lon="-106.011489840">
        <ele>1521.800</ele>
        <time>2021-04-24T17:04:39Z</time>
        <name>WPT.292</name>
      </trkpt>
      <trkpt lat="33.347949560" lon="-106.011447500">
        <ele>1522.800</ele>
        <time>2021-04-24T17:04:56Z</time>
        <name>WPT.293</name>
      </trkpt>
      <trkpt lat="33.347941160" lon="-106.011400400">
        <ele>1522.400</ele>
        <time>2021-04-24T17:05:04Z</time>
        <name>WPT.294</name>
      </trkpt>
      <trkpt lat="33.347918410" lon="-106.011361380">
        <ele>1522.200</ele>
        <time>2021-04-24T17:05:09Z</time>
        <name>WPT.295</name>
      </trkpt>
      <trkpt lat="33.347882210" lon="-106.011330940">
        <ele>1522.400</ele>
        <time>2021-04-24T17:05:15Z</time>
        <name>WPT.296</name>
      </trkpt>
      <trkpt lat="33.347848890" lon="-106.011314130">
        <ele>1522.400</ele>
        <time>2021-04-24T17:05:55Z</time>
        <name>WPT.297</name>
      </trkpt>
      <trkpt lat="33.347844400" lon="-106.011359030">
        <ele>1523.700</ele>
        <time>2021-04-24T17:06:32Z</time>
        <name>WPT.298</name>
      </trkpt>
      <trkpt lat="33.347855030" lon="-106.011404650">
        <ele>1523.400</ele>
        <time>2021-04-24T17:06:42Z</time>
        <name>WPT.299</name>
      </trkpt>
      <trkpt lat="33.347814350" lon="-106.011399860">
        <ele>1524.100</ele>
        <time>2021-04-24T17:07:48Z</time>
        <name>WPT.300</name>
      </trkpt>
      <trkpt lat="33.347792700" lon="-106.011363370">
        <ele>1523.900</ele>
        <time>2021-04-24T17:07:55Z</time>
        <name>WPT.301</name>
      </trkpt>
      <trkpt lat="33.347761340" lon="-106.011339980">
        <ele>1522.700</ele>
        <time>2021-04-24T17:08:27Z</time>
        <name>WPT.302</name>
      </trkpt>
      <trkpt lat="33.347721910" lon="-106.011336410">
        <ele>1524.100</ele>
        <time>2021-04-24T17:08:45Z</time>
        <name>WPT.303</name>
      </trkpt>
      <trkpt lat="33.347688580" lon="-106.011314980">
        <ele>1524.400</ele>
        <time>2021-04-24T17:08:57Z</time>
        <name>WPT.304</name>
      </trkpt>
      <trkpt lat="33.347649930" lon="-106.011319640">
        <ele>1524.800</ele>
        <time>2021-04-24T17:09:18Z</time>
        <name>WPT.305</name>
      </trkpt>
      <trkpt lat="33.347612820" lon="-106.011307010">
        <ele>1524.400</ele>
        <time>2021-04-24T17:09:24Z</time>
        <name>WPT.306</name>
      </trkpt>
      <trkpt lat="33.347578820" lon="-106.011281820">
        <ele>1523.800</ele>
        <time>2021-04-24T17:09:31Z</time>
        <name>WPT.307</name>
      </trkpt>
      <trkpt lat="33.347537290" lon="-106.011280360">
        <ele>1523.500</ele>
        <time>2021-04-24T17:09:38Z</time>
        <name>WPT.308</name>
      </trkpt>
      <trkpt lat="33.347501820" lon="-106.011265480">
        <ele>1523.000</ele>
        <time>2021-04-24T17:09:44Z</time>
        <name>WPT.309</name>
      </trkpt>
      <trkpt lat="33.347467560" lon="-106.011243210">
        <ele>1523.100</ele>
        <time>2021-04-24T17:09:50Z</time>
        <name>WPT.310</name>
      </trkpt>
      <trkpt lat="33.347447920" lon="-106.011206890">
        <ele>1523.100</ele>
        <time>2021-04-24T17:10:07Z</time>
        <name>WPT.311</name>
      </trkpt>
      <trkpt lat="33.347423990" lon="-106.011170740">
        <ele>1523.700</ele>
        <time>2021-04-24T17:10:14Z</time>
        <name>WPT.312</name>
      </trkpt>
      <trkpt lat="33.347390620" lon="-106.011154280">
        <ele>1523.700</ele>
        <time>2021-04-24T17:11:04Z</time>
        <name>WPT.313</name>
      </trkpt>
      <trkpt lat="33.347368590" lon="-106.011116150">
        <ele>1523.500</ele>
        <time>2021-04-24T17:11:10Z</time>
        <name>WPT.314</name>
      </trkpt>
      <trkpt lat="33.347336820" lon="-106.011093840">
        <ele>1523.600</ele>
        <time>2021-04-24T17:11:15Z</time>
        <name>WPT.315</name>
      </trkpt>
      <trkpt lat="33.347300610" lon="-106.011070940">
        <ele>1523.000</ele>
        <time>2021-04-24T17:11:21Z</time>
        <name>WPT.316</name>
      </trkpt>
      <trkpt lat="33.347273140" lon="-106.011036470">
        <ele>1522.400</ele>
        <time>2021-04-24T17:11:26Z</time>
        <name>WPT.317</name>
      </trkpt>
      <trkpt lat="33.347245700" lon="-106.010999360">
        <ele>1523.200</ele>
        <time>2021-04-24T17:11:31Z</time>
        <name>WPT.318</name>
      </trkpt>
      <trkpt lat="33.347206760" lon="-106.010979600">
        <ele>1523.400</ele>
        <time>2021-04-24T17:11:36Z</time>
        <name>WPT.319</name>
      </trkpt>
      <trkpt lat="33.347177850" lon="-106.010940900">
        <ele>1524.000</ele>
        <time>2021-04-24T17:11:41Z</time>
        <name>WPT.320</name>
      </trkpt>
      <trkpt lat="33.347138570" lon="-106.010924730">
        <ele>1523.600</ele>
        <time>2021-04-24T17:11:46Z</time>
        <name>WPT.321</name>
      </trkpt>
      <trkpt lat="33.347104480" lon="-106.010903260">
        <ele>1523.900</ele>
        <time>2021-04-24T17:11:50Z</time>
        <name>WPT.322</name>
      </trkpt>
      <trkpt lat="33.347069210" lon="-106.010875470">
        <ele>1522.900</ele>
        <time>2021-04-24T17:11:55Z</time>
        <name>WPT.323</name>
      </trkpt>
      <trkpt lat="33.347042560" lon="-106.010845770">
        <ele>1523.700</ele>
        <time>2021-04-24T17:12:01Z</time>
        <name>WPT.324</name>
      </trkpt>
      <trkpt lat="33.347003070" lon="-106.010840130">
        <ele>1523.300</ele>
        <time>2021-04-24T17:12:07Z</time>
        <name>WPT.325</name>
      </trkpt>
      <trkpt lat="33.346963360" lon="-106.010855710">
        <ele>1523.000</ele>
        <time>2021-04-24T17:12:25Z</time>
        <name>WPT.326</name>
      </trkpt>
      <trkpt lat="33.346929630" lon="-106.010879830">
        <ele>1522.200</ele>
        <time>2021-04-24T17:12:32Z</time>
        <name>WPT.327</name>
      </trkpt>
      <trkpt lat="33.346890300" lon="-106.010891620">
        <ele>1522.300</ele>
        <time>2021-04-24T17:12:40Z</time>
        <name>WPT.328</name>
      </trkpt>
      <trkpt lat="33.346852050" lon="-106.010896970">
        <ele>1521.600</ele>
        <time>2021-04-24T17:12:54Z</time>
        <name>WPT.329</name>
      </trkpt>
      <trkpt lat="33.346821140" lon="-106.010919300">
        <ele>1521.400</ele>
        <time>2021-04-24T17:12:59Z</time>
        <name>WPT.330</name>
      </trkpt>
      <trkpt lat="33.346789110" lon="-106.010941850">
        <ele>1520.000</ele>
        <time>2021-04-24T17:13:03Z</time>
        <name>WPT.331</name>
      </trkpt>
      <trkpt lat="33.346765860" lon="-106.010979110">
        <ele>1520.500</ele>
        <time>2021-04-24T17:13:10Z</time>
        <name>WPT.332</name>
      </trkpt>
      <trkpt lat="33.346728140" lon="-106.010982980">
        <ele>1519.600</ele>
        <time>2021-04-24T17:13:25Z</time>
        <name>WPT.333</name>
      </trkpt>
      <trkpt lat="33.346688020" lon="-106.010996740">
        <ele>1519.800</ele>
        <time>2021-04-24T17:13:31Z</time>
        <name>WPT.334</name>
      </trkpt>
      <trkpt lat="33.346654640" lon="-106.011023520">
        <ele>1519.300</ele>
        <time>2021-04-24T17:13:36Z</time>
        <name>WPT.335</name>
      </trkpt>
      <trkpt lat="33.346623390" lon="-106.011045930">
        <ele>1518.800</ele>
        <time>2021-04-24T17:13:40Z</time>
        <name>WPT.336</name>
      </trkpt>
      <trkpt lat="33.346623030" lon="-106.011091500">
        <ele>1518.700</ele>
        <time>2021-04-24T17:14:20Z</time>
        <name>WPT.337</name>
      </trkpt>
      <trkpt lat="33.346586110" lon="-106.011105690">
        <ele>1518.400</ele>
        <time>2021-04-24T17:14:35Z</time>
        <name>WPT.338</name>
      </trkpt>
      <trkpt lat="33.346550880" lon="-106.011086790">
        <ele>1518.400</ele>
        <time>2021-04-24T17:14:42Z</time>
        <name>WPT.339</name>
      </trkpt>
      <trkpt lat="33.346512810" lon="-106.011078860">
        <ele>1517.200</ele>
        <time>2021-04-24T17:14:50Z</time>
        <name>WPT.340</name>
      </trkpt>
      <trkpt lat="33.346486710" lon="-106.011046570">
        <ele>1517.400</ele>
        <time>2021-04-24T17:14:55Z</time>
        <name>WPT.341</name>
      </trkpt>
      <trkpt lat="33.346451030" lon="-106.011028310">
        <ele>1516.700</ele>
        <time>2021-04-24T17:15:09Z</time>
        <name>WPT.342</name>
      </trkpt>
      <trkpt lat="33.346416790" lon="-106.011000150">
        <ele>1516.100</ele>
        <time>2021-04-24T17:15:14Z</time>
        <name>WPT.343</name>
      </trkpt>
      <trkpt lat="33.346383260" lon="-106.010978560">
        <ele>1516.400</ele>
        <time>2021-04-24T17:15:19Z</time>
        <name>WPT.344</name>
      </trkpt>
      <trkpt lat="33.346348950" lon="-106.010948080">
        <ele>1515.600</ele>
        <time>2021-04-24T17:15:24Z</time>
        <name>WPT.345</name>
      </trkpt>
      <trkpt lat="33.346322030" lon="-106.010914110">
        <ele>1516.500</ele>
        <time>2021-04-24T17:15:29Z</time>
        <name>WPT.346</name>
      </trkpt>
      <trkpt lat="33.346299850" lon="-106.010878750">
        <ele>1517.300</ele>
        <time>2021-04-24T17:15:35Z</time>
        <name>WPT.347</name>
      </trkpt>
      <trkpt lat="33.346266540" lon="-106.010844580">
        <ele>1517.100</ele>
        <time>2021-04-24T17:15:40Z</time>
        <name>WPT.348</name>
      </trkpt>
      <trkpt lat="33.346234400" lon="-106.010816470">
        <ele>1517.100</ele>
        <time>2021-04-24T17:15:45Z</time>
        <name>WPT.349</name>
      </trkpt>
      <trkpt lat="33.346202680" lon="-106.010789940">
        <ele>1516.900</ele>
        <time>2021-04-24T17:15:50Z</time>
        <name>WPT.350</name>
      </trkpt>
      <trkpt lat="33.346167410" lon="-106.010765900">
        <ele>1515.600</ele>
        <time>2021-04-24T17:15:56Z</time>
        <name>WPT.351</name>
      </trkpt>
      <trkpt lat="33.346129030" lon="-106.010759610">
        <ele>1514.900</ele>
        <time>2021-04-24T17:16:06Z</time>
        <name>WPT.352</name>
      </trkpt>
      <trkpt lat="33.346091580" lon="-106.010751430">
        <ele>1514.300</ele>
        <time>2021-04-24T17:16:13Z</time>
        <name>WPT.353</name>
      </trkpt>
      <trkpt lat="33.346054870" lon="-106.010729030">
        <ele>1514.400</ele>
        <time>2021-04-24T17:16:21Z</time>
        <name>WPT.354</name>
      </trkpt>
      <trkpt lat="33.346026800" lon="-106.010696460">
        <ele>1513.700</ele>
        <time>2021-04-24T17:16:28Z</time>
        <name>WPT.355</name>
      </trkpt>
      <trkpt lat="33.345994940" lon="-106.010669590">
        <ele>1512.500</ele>
        <time>2021-04-24T17:16:34Z</time>
        <name>WPT.356</name>
      </trkpt>
      <trkpt lat="33.345955360" lon="-106.010661510">
        <ele>1512.000</ele>
        <time>2021-04-24T17:16:39Z</time>
        <name>WPT.357</name>
      </trkpt>
      <trkpt lat="33.345924550" lon="-106.010635660">
        <ele>1512.400</ele>
        <time>2021-04-24T17:16:44Z</time>
        <name>WPT.358</name>
      </trkpt>
      <trkpt lat="33.345887250" lon="-106.010626460">
        <ele>1511.800</ele>
        <time>2021-04-24T17:16:48Z</time>
        <name>WPT.359</name>
      </trkpt>
      <trkpt lat="33.345851380" lon="-106.010615580">
        <ele>1511.600</ele>
        <time>2021-04-24T17:16:53Z</time>
        <name>WPT.360</name>
      </trkpt>
      <trkpt lat="33.345815570" lon="-106.010608740">
        <ele>1511.300</ele>
        <time>2021-04-24T17:16:58Z</time>
        <name>WPT.361</name>
      </trkpt>
      <trkpt lat="33.345777170" lon="-106.010616930">
        <ele>1510.200</ele>
        <time>2021-04-24T17:17:03Z</time>
        <name>WPT.362</name>
      </trkpt>
      <trkpt lat="33.345749440" lon="-106.010647960">
        <ele>1509.800</ele>
        <time>2021-04-24T17:17:07Z</time>
        <name>WPT.363</name>
      </trkpt>
      <trkpt lat="33.345717670" lon="-106.010682930">
        <ele>1509.500</ele>
        <time>2021-04-24T17:17:12Z</time>
        <name>WPT.364</name>
      </trkpt>
      <trkpt lat="33.345682720" lon="-106.010703430">
        <ele>1509.100</ele>
        <time>2021-04-24T17:17:17Z</time>
        <name>WPT.365</name>
      </trkpt>
      <trkpt lat="33.345641920" lon="-106.010705260">
        <ele>1508.800</ele>
        <time>2021-04-24T17:17:24Z</time>
        <name>WPT.366</name>
      </trkpt>
      <trkpt lat="33.345603160" lon="-106.010697450">
        <ele>1509.400</ele>
        <time>2021-04-24T17:17:30Z</time>
        <name>WPT.367</name>
      </trkpt>
      <trkpt lat="33.345576140" lon="-106.010666580">
        <ele>1509.300</ele>
        <time>2021-04-24T17:17:36Z</time>
        <name>WPT.368</name>
      </trkpt>
      <trkpt lat="33.345554190" lon="-106.010631540">
        <ele>1508.700</ele>
        <time>2021-04-24T17:17:43Z</time>
        <name>WPT.369</name>
      </trkpt>
      <trkpt lat="33.345522500" lon="-106.010606050">
        <ele>1506.700</ele>
        <time>2021-04-24T17:17:50Z</time>
        <name>WPT.370</name>
      </trkpt>
      <trkpt lat="33.345489840" lon="-106.010574120">
        <ele>1506.000</ele>
        <time>2021-04-24T17:17:56Z</time>
        <name>WPT.371</name>
      </trkpt>
      <trkpt lat="33.345452300" lon="-106.010560580">
        <ele>1505.600</ele>
        <time>2021-04-24T17:18:01Z</time>
        <name>WPT.372</name>
      </trkpt>
      <trkpt lat="33.345412540" lon="-106.010557910">
        <ele>1505.500</ele>
        <time>2021-04-24T17:18:06Z</time>
        <name>WPT.373</name>
      </trkpt>
      <trkpt lat="33.345383700" lon="-106.010531990">
        <ele>1505.800</ele>
        <time>2021-04-24T17:18:11Z</time>
        <name>WPT.374</name>
      </trkpt>
      <trkpt lat="33.345373160" lon="-106.010485320">
        <ele>1507.300</ele>
        <time>2021-04-24T17:18:16Z</time>
        <name>WPT.375</name>
      </trkpt>
      <trkpt lat="33.345352320" lon="-106.010442590">
        <ele>1507.500</ele>
        <time>2021-04-24T17:18:22Z</time>
        <name>WPT.376</name>
      </trkpt>
      <trkpt lat="33.345355550" lon="-106.010394740">
        <ele>1505.600</ele>
        <time>2021-04-24T17:18:31Z</time>
        <name>WPT.377</name>
      </trkpt>
      <trkpt lat="33.345362220" lon="-106.010348780">
        <ele>1506.700</ele>
        <time>2021-04-24T17:18:37Z</time>
        <name>WPT.378</name>
      </trkpt>
      <trkpt lat="33.345365580" lon="-106.010302880">
        <ele>1506.400</ele>
        <time>2021-04-24T17:18:48Z</time>
        <name>WPT.379</name>
      </trkpt>
      <trkpt lat="33.345381570" lon="-106.010260610">
        <ele>1506.600</ele>
        <time>2021-04-24T17:18:55Z</time>
        <name>WPT.380</name>
      </trkpt>
      <trkpt lat="33.345384260" lon="-106.010216750">
        <ele>1506.100</ele>
        <time>2021-04-24T17:19:08Z</time>
        <name>WPT.381</name>
      </trkpt>
      <trkpt lat="33.345349300" lon="-106.010191360">
        <ele>1506.000</ele>
        <time>2021-04-24T17:19:15Z</time>
        <name>WPT.382</name>
      </trkpt>
      <trkpt lat="33.345328920" lon="-106.010155250">
        <ele>1506.400</ele>
        <time>2021-04-24T17:19:26Z</time>
        <name>WPT.383</name>
      </trkpt>
      <trkpt lat="33.345290040" lon="-106.010142480">
        <ele>1505.000</ele>
        <time>2021-04-24T17:19:34Z</time>
        <name>WPT.384</name>
      </trkpt>
      <trkpt lat="33.345252680" lon="-106.010149900">
        <ele>1503.800</ele>
        <time>2021-04-24T17:19:40Z</time>
        <name>WPT.385</name>
      </trkpt>
      <trkpt lat="33.345216690" lon="-106.010159020">
        <ele>1503.400</ele>
        <time>2021-04-24T17:19:46Z</time>
        <name>WPT.386</name>
      </trkpt>
      <trkpt lat="33.345176780" lon="-106.010164340">
        <ele>1502.800</ele>
        <time>2021-04-24T17:19:53Z</time>
        <name>WPT.387</name>
      </trkpt>
      <trkpt lat="33.345140860" lon="-106.010174910">
        <ele>1500.700</ele>
        <time>2021-04-24T17:19:59Z</time>
        <name>WPT.388</name>
      </trkpt>
      <trkpt lat="33.345100140" lon="-106.010175730">
        <ele>1500.200</ele>
        <time>2021-04-24T17:20:05Z</time>
        <name>WPT.389</name>
      </trkpt>
      <trkpt lat="33.345063300" lon="-106.010197710">
        <ele>1500.500</ele>
        <time>2021-04-24T17:20:10Z</time>
        <name>WPT.390</name>
      </trkpt>
      <trkpt lat="33.345031110" lon="-106.010225970">
        <ele>1499.800</ele>
        <time>2021-04-24T17:20:15Z</time>
        <name>WPT.391</name>
      </trkpt>
      <trkpt lat="33.344992740" lon="-106.010238230">
        <ele>1499.100</ele>
        <time>2021-04-24T17:20:19Z</time>
        <name>WPT.392</name>
      </trkpt>
      <trkpt lat="33.344956980" lon="-106.010256450">
        <ele>1497.700</ele>
        <time>2021-04-24T17:20:24Z</time>
        <name>WPT.393</name>
      </trkpt>
      <trkpt lat="33.344918670" lon="-106.010259550">
        <ele>1497.700</ele>
        <time>2021-04-24T17:20:29Z</time>
        <name>WPT.394</name>
      </trkpt>
      <trkpt lat="33.344881180" lon="-106.010262260">
        <ele>1498.200</ele>
        <time>2021-04-24T17:20:36Z</time>
        <name>WPT.395</name>
      </trkpt>
      <trkpt lat="33.344839650" lon="-106.010263660">
        <ele>1497.600</ele>
        <time>2021-04-24T17:20:41Z</time>
        <name>WPT.396</name>
      </trkpt>
      <trkpt lat="33.344799180" lon="-106.010260430">
        <ele>1496.300</ele>
        <time>2021-04-24T17:20:46Z</time>
        <name>WPT.397</name>
      </trkpt>
      <trkpt lat="33.344757140" lon="-106.010259780">
        <ele>1495.600</ele>
        <time>2021-04-24T17:20:51Z</time>
        <name>WPT.398</name>
      </trkpt>
      <trkpt lat="33.344719770" lon="-106.010252260">
        <ele>1495.600</ele>
        <time>2021-04-24T17:20:56Z</time>
        <name>WPT.399</name>
      </trkpt>
      <trkpt lat="33.344680060" lon="-106.010241740">
        <ele>1495.200</ele>
        <time>2021-04-24T17:21:01Z</time>
        <name>WPT.400</name>
      </trkpt>
      <trkpt lat="33.344650850" lon="-106.010210570">
        <ele>1495.400</ele>
        <time>2021-04-24T17:21:06Z</time>
        <name>WPT.401</name>
      </trkpt>
      <trkpt lat="33.344624290" lon="-106.010173470">
        <ele>1495.700</ele>
        <time>2021-04-24T17:21:12Z</time>
        <name>WPT.402</name>
      </trkpt>
      <trkpt lat="33.344617140" lon="-106.010122940">
        <ele>1496.000</ele>
        <time>2021-04-24T17:21:18Z</time>
        <name>WPT.403</name>
      </trkpt>
      <trkpt lat="33.344613290" lon="-106.010072450">
        <ele>1495.600</ele>
        <time>2021-04-24T17:21:23Z</time>
        <name>WPT.404</name>
      </trkpt>
      <trkpt lat="33.344634440" lon="-106.010028400">
        <ele>1495.500</ele>
        <time>2021-04-24T17:21:28Z</time>
        <name>WPT.405</name>
      </trkpt>
      <trkpt lat="33.344657040" lon="-106.009988880">
        <ele>1495.000</ele>
        <time>2021-04-24T17:21:32Z</time>
        <name>WPT.406</name>
      </trkpt>
      <trkpt lat="33.344671680" lon="-106.009946010">
        <ele>1494.800</ele>
        <time>2021-04-24T17:21:36Z</time>
        <name>WPT.407</name>
      </trkpt>
      <trkpt lat="33.344683300" lon="-106.009902250">
        <ele>1494.900</ele>
        <time>2021-04-24T17:21:40Z</time>
        <name>WPT.408</name>
      </trkpt>
      <trkpt lat="33.344701010" lon="-106.009861380">
        <ele>1494.300</ele>
        <time>2021-04-24T17:21:44Z</time>
        <name>WPT.409</name>
      </trkpt>
      <trkpt lat="33.344714580" lon="-106.009810550">
        <ele>1494.400</ele>
        <time>2021-04-24T17:21:49Z</time>
        <name>WPT.410</name>
      </trkpt>
      <trkpt lat="33.344728060" lon="-106.009761440">
        <ele>1494.600</ele>
        <time>2021-04-24T17:21:54Z</time>
        <name>WPT.411</name>
      </trkpt>
      <trkpt lat="33.344738730" lon="-106.009719740">
        <ele>1495.500</ele>
        <time>2021-04-24T17:21:58Z</time>
        <name>WPT.412</name>
      </trkpt>
      <trkpt lat="33.344745530" lon="-106.009667160">
        <ele>1495.500</ele>
        <time>2021-04-24T17:22:03Z</time>
        <name>WPT.413</name>
      </trkpt>
      <trkpt lat="33.344765920" lon="-106.009629510">
        <ele>1496.000</ele>
        <time>2021-04-24T17:22:08Z</time>
        <name>WPT.414</name>
      </trkpt>
      <trkpt lat="33.344792160" lon="-106.009599880">
        <ele>1495.900</ele>
        <time>2021-04-24T17:22:13Z</time>
        <name>WPT.415</name>
      </trkpt>
      <trkpt lat="33.344793370" lon="-106.009554850">
        <ele>1496.100</ele>
        <time>2021-04-24T17:22:18Z</time>
        <name>WPT.416</name>
      </trkpt>
      <trkpt lat="33.344796280" lon="-106.009501470">
        <ele>1496.900</ele>
        <time>2021-04-24T17:22:23Z</time>
        <name>WPT.417</name>
      </trkpt>
      <trkpt lat="33.344794570" lon="-106.009454850">
        <ele>1496.600</ele>
        <time>2021-04-24T17:22:27Z</time>
        <name>WPT.418</name>
      </trkpt>
      <trkpt lat="33.344783460" lon="-106.009404850">
        <ele>1496.300</ele>
        <time>2021-04-24T17:22:32Z</time>
        <name>WPT.419</name>
      </trkpt>
      <trkpt lat="33.344789550" lon="-106.009361060">
        <ele>1497.300</ele>
        <time>2021-04-24T17:22:42Z</time>
        <name>WPT.420</name>
      </trkpt>
      <trkpt lat="33.344778500" lon="-106.009316810">
        <ele>1497.500</ele>
        <time>2021-04-24T17:22:47Z</time>
        <name>WPT.421</name>
      </trkpt>
      <trkpt lat="33.344767370" lon="-106.009273240">
        <ele>1497.300</ele>
        <time>2021-04-24T17:22:51Z</time>
        <name>WPT.422</name>
      </trkpt>
      <trkpt lat="33.344759730" lon="-106.009227570">
        <ele>1496.600</ele>
        <time>2021-04-24T17:22:55Z</time>
        <name>WPT.423</name>
      </trkpt>
      <trkpt lat="33.344757950" lon="-106.009175620">
        <ele>1497.100</ele>
        <time>2021-04-24T17:23:00Z</time>
        <name>WPT.424</name>
      </trkpt>
      <trkpt lat="33.344763900" lon="-106.009124770">
        <ele>1497.100</ele>
        <time>2021-04-24T17:23:06Z</time>
        <name>WPT.425</name>
      </trkpt>
      <trkpt lat="33.344743360" lon="-106.009088450">
        <ele>1496.800</ele>
        <time>2021-04-24T17:23:13Z</time>
        <name>WPT.426</name>
      </trkpt>
      <trkpt lat="33.344706260" lon="-106.009062840">
        <ele>1495.800</ele>
        <time>2021-04-24T17:23:23Z</time>
        <name>WPT.427</name>
      </trkpt>
      <trkpt lat="33.344674000" lon="-106.009043430">
        <ele>1495.800</ele>
        <time>2021-04-24T17:23:29Z</time>
        <name>WPT.428</name>
      </trkpt>
      <trkpt lat="33.344673740" lon="-106.009056100">
        <ele>1495.800</ele>
        <time>2021-04-24T17:23:45Z</time>
        <name>WPT.429</name>
      </trkpt>
    </trkseg>
  </trk>
</gpx>
